Time;durP1;ratioP1;P1;durP2;ratioP2;P2;SDS_P1;SDS_P2;PMS_P1;PMS_P2;Temp;Humidity;BMP_temperature;BMP_pressure;BME280_temperature;BME280_humidity;BME280_pressure;Samples;Min_cycle;Max_cycle;Signal;HPM_P1;HPM_P2
2022/12/31 00:00:51;;;;;;;1.67;1.40;;;8.70;99.90;;;;;;6156796;23;20182;-78
2022/12/31 00:03:20;;;;;;;3.43;1.20;;;8.80;99.90;;;;;;6156619;23;20205;-77
2022/12/31 00:05:48;;;;;;;3.00;1.30;;;8.90;99.90;;;;;;6156380;23;20701;-78
2022/12/31 00:08:17;;;;;;;2.50;1.10;;;9.10;99.90;;;;;;6156521;23;20280;-77
2022/12/31 00:10:46;;;;;;;3.83;1.20;;;9.20;99.90;;;;;;6157150;23;20280;-77
2022/12/31 00:13:14;;;;;;;1.10;0.80;;;9.30;99.90;;;;;;6156995;23;20268;-76
2022/12/31 00:15:44;;;;;;;0.80;0.77;;;9.40;99.90;;;;;;6156832;23;20529;-78
2022/12/31 00:18:12;;;;;;;0.73;0.73;;;9.50;99.90;;;;;;6157618;23;20197;-78
2022/12/31 00:20:41;;;;;;;1.00;0.90;;;9.60;99.90;;;;;;6157592;23;20182;-77
2022/12/31 00:23:10;;;;;;;3.27;0.83;;;9.60;99.90;;;;;;6157042;23;20232;-78
2022/12/31 00:25:39;;;;;;;0.87;0.60;;;9.70;99.90;;;;;;6156568;23;20268;-78
2022/12/31 00:28:08;;;;;;;1.23;0.70;;;9.70;99.90;;;;;;6156061;23;20217;-78
2022/12/31 00:30:36;;;;;;;0.60;0.60;;;9.70;99.90;;;;;;6157368;23;20205;-79
2022/12/31 00:33:04;;;;;;;0.63;0.63;;;9.80;99.90;;;;;;6156511;23;20177;-79
2022/12/31 00:35:33;;;;;;;0.40;0.40;;;9.90;99.90;;;;;;6158376;23;20499;-80
2022/12/31 00:38:01;;;;;;;0.60;0.60;;;9.90;99.90;;;;;;6162858;23;20205;-80
2022/12/31 00:40:33;;;;;;;0.70;0.70;;;10.10;99.90;;;;;;6161883;23;20213;-78
2022/12/31 00:43:02;;;;;;;1.30;0.80;;;10.10;99.90;;;;;;6156631;23;20547;-78
2022/12/31 00:45:31;;;;;;;0.87;0.87;;;10.10;99.90;;;;;;6157131;23;20188;-78
2022/12/31 00:47:59;;;;;;;2.07;0.90;;;10.00;99.90;;;;;;6157044;23;20194;-78
2022/12/31 00:50:27;;;;;;;1.40;0.70;;;10.00;99.90;;;;;;6156943;23;20554;-79
2022/12/31 00:52:57;;;;;;;0.73;0.73;;;10.00;99.90;;;;;;6156297;23;20192;-78
2022/12/31 00:55:26;;;;;;;0.67;0.60;;;10.00;99.90;;;;;;6156785;23;20223;-78
2022/12/31 00:57:54;;;;;;;1.13;0.60;;;10.00;99.90;;;;;;6157121;23;20225;-78
2022/12/31 01:00:23;;;;;;;1.60;0.77;;;9.90;99.90;;;;;;6158403;23;20502;-79
2022/12/31 01:02:52;;;;;;;0.70;0.70;;;10.00;99.90;;;;;;6156741;23;20185;-79
2022/12/31 01:05:20;;;;;;;0.87;0.40;;;10.00;99.90;;;;;;6157580;23;20260;-79
2022/12/31 01:07:49;;;;;;;1.43;0.63;;;10.00;99.90;;;;;;6157563;23;20189;-80
2022/12/31 01:11:17;;;;;;;1.13;0.60;;;10.20;99.90;;;;;;6157453;23;20198;-79
2022/12/31 01:13:05;;;;;;;0.40;0.30;;;10.20;99.90;;;;;;6158757;23;20182;-79
2022/12/31 01:15:36;;;;;;;2.40;0.47;;;10.20;99.90;;;;;;6160065;23;20280;-78
2022/12/31 01:18:05;;;;;;;1.13;0.57;;;10.20;99.90;;;;;;6159807;23;20225;-80
2022/12/31 01:20:36;;;;;;;0.73;0.30;;;10.40;99.90;;;;;;6162137;23;20182;-79
2022/12/31 01:23:04;;;;;;;2.13;0.43;;;10.50;99.90;;;;;;6175895;23;20201;-77
2022/12/31 01:25:36;;;;;;;0.30;0.30;;;10.50;99.90;;;;;;6167741;23;20253;-77
2022/12/31 01:28:06;;;;;;;0.77;0.50;;;10.60;99.90;;;;;;6162542;23;20205;-78
2022/12/31 01:30:38;;;;;;;0.30;0.30;;;10.70;99.90;;;;;;6156141;23;20208;-78
2022/12/31 01:33:07;;;;;;;0.40;0.40;;;10.80;99.90;;;;;;6156166;23;20162;-78
2022/12/31 01:35:35;;;;;;;0.50;0.40;;;10.90;99.90;;;;;;6156491;23;20511;-78
2022/12/31 01:38:04;;;;;;;0.40;0.40;;;11.00;99.90;;;;;;6158558;23;20193;-80
2022/12/31 01:40:36;;;;;;;0.77;0.43;;;11.30;99.90;;;;;;6180377;23;20681;-76
2022/12/31 01:43:15;;;;;;;0.70;0.50;;;11.40;99.90;;;;;;6156915;23;20257;-79
2022/12/31 01:45:47;;;;;;;0.50;0.50;;;11.50;99.90;;;;;;6156298;23;20173;-78
2022/12/31 01:48:20;;;;;;;0.20;0.20;;;11.60;99.90;;;;;;6155850;23;20178;-76
2022/12/31 01:50:49;;;;;;;0.90;0.20;;;11.60;99.90;;;;;;6156187;23;20545;-77
2022/12/31 01:53:19;;;;;;;0.27;0.27;;;11.70;99.90;;;;;;6158297;23;20219;-77
2022/12/31 01:55:50;;;;;;;0.40;0.40;;;11.60;99.90;;;;;;6156914;23;20182;-79
2022/12/31 01:58:22;;;;;;;0.30;0.30;;;11.70;99.90;;;;;;6156702;23;20188;-77
2022/12/31 02:00:53;;;;;;;0.57;0.30;;;11.80;99.90;;;;;;6158852;23;20173;-77
2022/12/31 02:03:24;;;;;;;1.17;0.40;;;11.90;99.90;;;;;;6159243;23;20189;-78
2022/12/31 02:05:56;;;;;;;0.30;0.30;;;12.00;99.90;;;;;;6159979;23;20200;-78
2022/12/31 02:08:24;;;;;;;0.37;0.37;;;12.10;99.90;;;;;;6160899;23;20170;-76
2022/12/31 02:10:53;;;;;;;0.87;0.30;;;12.10;99.90;;;;;;6161568;23;20212;-79
2022/12/31 02:13:22;;;;;;;0.30;0.30;;;12.20;99.90;;;;;;6162637;23;20205;-80
2022/12/31 02:16:00;;;;;;;0.87;0.40;;;12.30;99.90;;;;;;6168649;23;20181;-79
2022/12/31 02:18:34;;;;;;;0.53;0.20;;;12.50;99.90;;;;;;6162918;23;20205;-79
2022/12/31 02:21:37;;;;;;;0.60;0.40;;;12.40;99.90;;;;;;6159637;23;20200;-79
2022/12/31 02:24:26;;;;;;;0.57;0.50;;;12.50;99.90;;;;;;6152091;23;20193;-78
2022/12/31 02:26:59;;;;;;;3.40;0.53;;;12.50;99.90;;;;;;6154959;23;20186;-79
2022/12/31 02:29:58;;;;;;;0.50;0.40;;;12.50;99.90;;;;;;6160188;23;20190;-77
2022/12/31 02:32:38;;;;;;;1.03;0.50;;;12.50;99.90;;;;;;6158074;23;20264;-79
2022/12/31 02:35:12;;;;;;;0.40;0.30;;;12.50;99.90;;;;;;6159012;23;20240;-77
2022/12/31 02:37:43;;;;;;;0.37;0.30;;;12.50;99.90;;;;;;6160292;23;20165;-78
2022/12/31 02:40:15;;;;;;;0.30;0.30;;;12.50;99.90;;;;;;6159517;23;20261;-78
2022/12/31 02:42:43;;;;;;;0.30;0.30;;;12.60;99.90;;;;;;6158373;23;20187;-77
2022/12/31 02:45:26;;;;;;;0.50;0.50;;;12.70;99.90;;;;;;6157747;23;20165;-77
2022/12/31 02:48:08;;;;;;;0.87;0.30;;;12.70;99.90;;;;;;6162927;23;20614;-78
2022/12/31 02:50:54;;;;;;;0.23;0.20;;;12.70;99.90;;;;;;6159321;23;20186;-80
2022/12/31 02:53:46;;;;;;;1.50;0.30;;;12.60;99.90;;;;;;6160944;23;20181;-77
2022/12/31 02:56:22;;;;;;;0.70;0.40;;;12.60;99.90;;;;;;6158485;23;20246;-76
2022/12/31 03:04:41;;;;;;;1.30;0.47;;;12.70;99.90;;;;;;6163868;23;20181;-78
2022/12/31 03:07:12;;;;;;;2.10;0.40;;;12.70;99.90;;;;;;6161694;23;20185;-79
2022/12/31 03:09:40;;;;;;;0.80;0.30;;;12.80;99.90;;;;;;6159685;23;20644;-78
2022/12/31 03:15:05;;;;;;;0.80;0.43;;;12.80;99.90;;;;;;6166381;23;20555;-78
2022/12/31 03:17:35;;;;;;;0.40;0.30;;;12.70;99.90;;;;;;6159372;23;20180;-78
2022/12/31 03:22:51;;;;;;;0.20;0.20;;;12.80;99.90;;;;;;6157758;23;20659;-79
2022/12/31 03:25:33;;;;;;;0.53;0.50;;;12.80;99.90;;;;;;6159446;23;20253;-79
2022/12/31 03:28:04;;;;;;;0.43;0.30;;;12.80;99.90;;;;;;6157864;23;20720;-79
2022/12/31 03:30:34;;;;;;;0.40;0.33;;;12.80;99.90;;;;;;6158897;23;20717;-79
2022/12/31 03:33:03;;;;;;;0.30;0.30;;;12.80;99.90;;;;;;6156598;23;20676;-77
2022/12/31 03:35:35;;;;;;;0.30;0.20;;;12.70;99.90;;;;;;6158889;23;20265;-78
2022/12/31 03:38:04;;;;;;;0.90;0.30;;;12.80;99.90;;;;;;6157359;23;20177;-76
2022/12/31 03:40:33;;;;;;;0.30;0.20;;;12.80;99.90;;;;;;6160389;23;20265;-77
2022/12/31 03:43:01;;;;;;;0.37;0.30;;;12.80;99.90;;;;;;6157242;23;20209;-77
2022/12/31 03:45:30;;;;;;;2.03;0.40;;;12.80;99.90;;;;;;6158774;23;20288;-79
2022/12/31 03:47:58;;;;;;;0.83;0.30;;;12.80;99.90;;;;;;6157208;23;20188;-79
2022/12/31 03:50:27;;;;;;;0.30;0.30;;;12.80;99.90;;;;;;6164869;23;20201;-80
2022/12/31 03:52:57;;;;;;;0.27;0.27;;;12.80;99.90;;;;;;6157575;23;20181;-78
2022/12/31 03:55:25;;;;;;;1.10;0.30;;;12.80;99.90;;;;;;6157091;23;20181;-79
2022/12/31 03:57:54;;;;;;;0.67;0.30;;;12.80;99.90;;;;;;6159194;23;20180;-79
2022/12/31 04:00:27;;;;;;;1.53;0.20;;;12.80;99.90;;;;;;6160187;23;20173;-80
2022/12/31 04:02:56;;;;;;;0.20;0.20;;;12.80;99.90;;;;;;6159473;23;20189;-81
2022/12/31 04:05:25;;;;;;;0.40;0.20;;;12.80;99.90;;;;;;6161147;23;20177;-80
2022/12/31 04:07:54;;;;;;;0.40;0.30;;;12.70;99.90;;;;;;6160538;23;20261;-80
2022/12/31 04:10:24;;;;;;;0.30;0.30;;;12.70;99.90;;;;;;6158878;23;20545;-80
2022/12/31 04:12:52;;;;;;;0.20;0.20;;;12.70;99.90;;;;;;6158423;23;20181;-79
2022/12/31 04:15:21;;;;;;;0.40;0.40;;;12.70;99.90;;;;;;6165118;23;20189;-79
2022/12/31 04:17:49;;;;;;;0.70;0.40;;;12.70;99.90;;;;;;6155467;23;20221;-80
2022/12/31 04:20:17;;;;;;;0.70;0.50;;;12.70;99.90;;;;;;6157704;23;20190;-78
2022/12/31 04:22:46;;;;;;;0.83;0.40;;;12.70;99.90;;;;;;6155279;23;20217;-80
2022/12/31 04:25:14;;;;;;;1.50;0.40;;;12.70;99.90;;;;;;6160268;23;20196;-79
2022/12/31 04:27:43;;;;;;;0.20;0.20;;;12.70;99.90;;;;;;6157868;23;20196;-80
2022/12/31 04:30:13;;;;;;;0.50;0.30;;;12.70;99.90;;;;;;6159649;23;20233;-80
2022/12/31 04:32:41;;;;;;;1.90;0.40;;;12.70;99.90;;;;;;6160416;23;20186;-79
2022/12/31 04:35:10;;;;;;;1.63;0.30;;;12.70;99.90;;;;;;6164592;23;20209;-80
2022/12/31 04:37:39;;;;;;;0.47;0.33;;;12.80;99.90;;;;;;6158994;23;20181;-79
2022/12/31 04:40:08;;;;;;;0.40;0.40;;;12.80;99.90;;;;;;6162416;23;20174;-81
2022/12/31 04:42:37;;;;;;;0.57;0.30;;;12.90;99.90;;;;;;6156580;23;20185;-80
2022/12/31 04:45:07;;;;;;;0.80;0.30;;;12.90;99.90;;;;;;6165615;23;20192;-80
2022/12/31 04:47:36;;;;;;;0.30;0.30;;;12.90;99.90;;;;;;6173866;23;20192;-81
2022/12/31 04:50:06;;;;;;;0.30;0.30;;;13.00;99.90;;;;;;6175722;23;20201;-80
2022/12/31 04:52:34;;;;;;;1.57;0.40;;;13.00;99.90;;;;;;6164794;23;20172;-80
2022/12/31 04:55:10;;;;;;;0.40;0.33;;;13.00;99.90;;;;;;6157740;23;20220;-80
2022/12/31 04:57:39;;;;;;;0.60;0.20;;;13.00;99.90;;;;;;6157668;23;20642;-80
2022/12/31 05:00:10;;;;;;;1.50;0.30;;;13.00;99.90;;;;;;6161620;23;20280;-80
2022/12/31 05:02:38;;;;;;;1.47;0.40;;;13.00;99.90;;;;;;6162137;23;20181;-79
2022/12/31 05:05:07;;;;;;;0.47;0.10;;;13.10;99.90;;;;;;6168074;23;20185;-80
2022/12/31 05:07:35;;;;;;;0.47;0.30;;;13.10;99.90;;;;;;6159270;23;20258;-79
2022/12/31 05:10:05;;;;;;;0.57;0.40;;;13.10;99.90;;;;;;6158529;23;20220;-81
2022/12/31 05:12:33;;;;;;;0.83;0.40;;;13.20;99.90;;;;;;6157492;23;20717;-80
2022/12/31 05:15:02;;;;;;;1.37;0.40;;;13.20;99.90;;;;;;6162030;23;20188;-79
2022/12/31 05:17:31;;;;;;;0.30;0.30;;;13.30;99.90;;;;;;6174739;23;20201;-79
2022/12/31 05:19:59;;;;;;;0.47;0.30;;;13.30;99.90;;;;;;6179965;23;20209;-79
2022/12/31 05:22:29;;;;;;;0.50;0.27;;;13.40;99.90;;;;;;6176944;23;20209;-79
2022/12/31 05:24:59;;;;;;;0.30;0.30;;;13.40;99.90;;;;;;6176623;23;20182;-80
2022/12/31 05:27:30;;;;;;;0.30;0.30;;;13.50;99.90;;;;;;6168997;23;20568;-82
2022/12/31 05:29:58;;;;;;;0.30;0.30;;;13.40;99.90;;;;;;6164882;23;20173;-81
2022/12/31 05:32:27;;;;;;;1.13;0.50;;;13.40;99.90;;;;;;6168311;23;20209;-81
2022/12/31 05:35:11;;;;;;;0.40;0.23;;;13.40;99.90;;;;;;6169183;23;20185;-80
2022/12/31 05:37:39;;;;;;;0.40;0.20;;;13.40;99.90;;;;;;6165447;23;20180;-78
2022/12/31 05:40:08;;;;;;;0.13;0.13;;;13.50;99.90;;;;;;6162420;23;20173;-81
2022/12/31 05:42:37;;;;;;;0.50;0.40;;;13.50;99.90;;;;;;6166068;23;20225;-80
2022/12/31 05:45:12;;;;;;;1.03;0.40;;;13.60;99.90;;;;;;6167003;23;20189;-80
2022/12/31 05:47:40;;;;;;;0.43;0.30;;;13.60;99.90;;;;;;6165594;23;20455;-80
2022/12/31 05:50:14;;;;;;;0.30;0.30;;;13.70;99.90;;;;;;6165140;23;20209;-78
2022/12/31 05:52:42;;;;;;;0.30;0.30;;;13.80;99.90;;;;;;6166900;23;20181;-79
2022/12/31 05:55:16;;;;;;;0.80;0.50;;;13.80;99.90;;;;;;6163955;23;20181;-77
2022/12/31 05:57:44;;;;;;;0.20;0.20;;;13.90;99.90;;;;;;6169838;23;20229;-80
2022/12/31 06:00:14;;;;;;;0.50;0.30;;;14.00;99.90;;;;;;6159172;23;20177;-79
2022/12/31 06:02:42;;;;;;;0.30;0.30;;;13.90;99.90;;;;;;6159463;23;20180;-79
2022/12/31 06:05:12;;;;;;;0.30;0.30;;;13.90;99.90;;;;;;6157013;23;20177;-78
2022/12/31 06:07:41;;;;;;;0.53;0.30;;;13.80;99.90;;;;;;6159464;23;20225;-79
2022/12/31 06:10:09;;;;;;;0.73;0.20;;;13.80;99.90;;;;;;6161239;23;20177;-79
2022/12/31 06:12:37;;;;;;;1.23;0.23;;;13.70;99.90;;;;;;6164350;23;20220;-79
2022/12/31 06:15:07;;;;;;;0.20;0.20;;;13.70;99.90;;;;;;6160221;23;20181;-80
2022/12/31 06:17:35;;;;;;;0.20;0.20;;;13.70;99.90;;;;;;6164697;23;20264;-80
2022/12/31 06:20:05;;;;;;;1.20;0.33;;;13.70;99.90;;;;;;6158642;23;20257;-80
2022/12/31 06:22:42;;;;;;;0.40;0.40;;;13.60;99.90;;;;;;6166496;23;20198;-79
2022/12/31 06:25:13;;;;;;;0.87;0.30;;;13.50;99.90;;;;;;6160877;23;20182;-80
2022/12/31 06:27:42;;;;;;;2.03;0.37;;;13.50;99.90;;;;;;6165807;23;20252;-80
2022/12/31 06:30:12;;;;;;;0.40;0.40;;;13.40;99.90;;;;;;6163382;23;20201;-80
2022/12/31 06:32:40;;;;;;;1.33;1.13;;;13.40;99.90;;;;;;6159985;23;20220;-79
2022/12/31 06:35:10;;;;;;;1.40;0.90;;;13.40;99.90;;;;;;6158777;23;20184;-79
2022/12/31 06:37:38;;;;;;;1.53;1.30;;;13.40;99.90;;;;;;6160223;23;20181;-81
2022/12/31 06:40:09;;;;;;;1.03;0.40;;;13.30;99.90;;;;;;6158070;23;20192;-79
2022/12/31 06:42:38;;;;;;;0.30;0.30;;;13.30;99.90;;;;;;6157965;23;20189;-80
2022/12/31 06:45:07;;;;;;;0.27;0.27;;;13.30;99.90;;;;;;6157311;23;20178;-80
2022/12/31 06:47:35;;;;;;;1.37;0.40;;;13.20;99.90;;;;;;6157549;23;20189;-81
2022/12/31 06:50:04;;;;;;;0.80;0.40;;;13.30;99.90;;;;;;6157695;23;20634;-79
2022/12/31 06:52:32;;;;;;;0.93;0.40;;;13.20;99.90;;;;;;6158016;23;20204;-80
2022/12/31 06:55:01;;;;;;;1.33;0.50;;;13.30;99.90;;;;;;6158117;23;20181;-80
2022/12/31 06:57:31;;;;;;;1.93;0.60;;;13.20;99.90;;;;;;6156982;23;20264;-80
2022/12/31 07:00:00;;;;;;;0.40;0.40;;;13.20;99.90;;;;;;6157100;23;20264;-79
2022/12/31 07:02:55;;;;;;;0.97;0.67;;;13.20;99.90;;;;;;6157952;23;20182;-80
2022/12/31 07:05:35;;;;;;;0.50;0.50;;;13.10;99.90;;;;;;6157608;23;20209;-79
2022/12/31 07:08:26;;;;;;;0.50;0.50;;;13.10;99.90;;;;;;6158178;23;20174;-79
2022/12/31 07:10:59;;;;;;;0.80;0.70;;;13.00;99.90;;;;;;6158551;23;20607;-80
2022/12/31 07:13:57;;;;;;;2.67;1.50;;;13.00;99.90;;;;;;6158553;23;20212;-80
2022/12/31 07:16:36;;;;;;;0.80;0.60;;;12.90;99.90;;;;;;6160245;23;20229;-78
2022/12/31 07:19:16;;;;;;;0.60;0.60;;;12.90;99.90;;;;;;6161847;23;20277;-80
2022/12/31 07:21:45;;;;;;;0.50;0.50;;;12.90;99.90;;;;;;6157586;23;20194;-81
2022/12/31 07:24:17;;;;;;;0.80;0.80;;;13.00;99.90;;;;;;6156837;23;20220;-81
2022/12/31 07:27:05;;;;;;;1.77;0.97;;;13.00;99.90;;;;;;6157417;23;20261;-80
2022/12/31 07:29:47;;;;;;;0.70;0.70;;;13.00;99.90;;;;;;6159398;23;20356;-80
2022/12/31 07:32:29;;;;;;;0.70;0.60;;;13.00;99.90;;;;;;6159119;23;20194;-79
2022/12/31 07:35:04;;;;;;;0.80;0.50;;;12.90;99.90;;;;;;6162869;23;20538;-79
2022/12/31 07:37:40;;;;;;;0.63;0.60;;;12.80;99.90;;;;;;6160821;23;20653;-79
2022/12/31 07:40:16;;;;;;;0.60;0.60;;;12.80;99.90;;;;;;6165863;23;20249;-80
2022/12/31 07:43:00;;;;;;;0.50;0.50;;;12.80;99.90;;;;;;6165822;23;20232;-80
2022/12/31 07:45:41;;;;;;;0.50;0.50;;;12.80;99.90;;;;;;6162211;23;20229;-78
2022/12/31 07:48:21;;;;;;;0.50;0.50;;;12.80;99.90;;;;;;6161881;23;20181;-79
2022/12/31 07:50:49;;;;;;;0.60;0.50;;;12.80;99.90;;;;;;6182717;23;20173;-81
2022/12/31 07:53:18;;;;;;;0.80;0.63;;;12.80;99.90;;;;;;6158205;23;20240;-81
2022/12/31 07:55:47;;;;;;;0.73;0.50;;;12.80;99.90;;;;;;6157783;23;20205;-80
2022/12/31 07:58:21;;;;;;;0.70;0.70;;;12.80;99.90;;;;;;6157188;23;20377;-78
2022/12/31 08:00:53;;;;;;;0.60;0.60;;;12.70;99.90;;;;;;6158144;23;20165;-80
2022/12/31 08:03:38;;;;;;;2.30;0.70;;;12.80;99.90;;;;;;6156985;23;20170;-79
2022/12/31 08:06:12;;;;;;;0.80;0.80;;;12.70;99.90;;;;;;6157367;23;20223;-79
2022/12/31 08:08:51;;;;;;;1.57;1.10;;;12.70;99.90;;;;;;6157560;23;20189;-81
2022/12/31 08:11:25;;;;;;;1.20;1.00;;;12.70;99.90;;;;;;6159242;23;20192;-81
2022/12/31 08:13:56;;;;;;;1.20;0.93;;;12.70;99.90;;;;;;6159746;23;20755;-81
2022/12/31 08:16:26;;;;;;;0.80;0.80;;;12.80;99.90;;;;;;6158393;23;20173;-82
2022/12/31 08:18:57;;;;;;;0.70;0.70;;;12.80;99.90;;;;;;6158750;23;20252;-81
2022/12/31 08:21:38;;;;;;;1.67;0.67;;;12.90;99.90;;;;;;6182457;23;20208;-81
2022/12/31 08:24:17;;;;;;;1.43;0.60;;;13.00;99.90;;;;;;6169821;23;20185;-79
2022/12/31 08:26:57;;;;;;;0.70;0.67;;;13.10;99.90;;;;;;6154535;23;20261;-79
2022/12/31 08:29:35;;;;;;;0.50;0.50;;;13.70;99.90;;;;;;6155837;23;20708;-79
2022/12/31 08:32:11;;;;;;;2.33;0.80;;;14.10;99.90;;;;;;6154577;23;20224;-80
2022/12/31 08:34:50;;;;;;;1.67;0.77;;;14.30;99.90;;;;;;6157763;23;20192;-80
2022/12/31 08:37:26;;;;;;;1.23;0.70;;;14.30;99.90;;;;;;6160378;23;20241;-80
2022/12/31 08:40:11;;;;;;;0.67;0.60;;;14.80;99.90;;;;;;6159565;23;20328;-80
2022/12/31 08:42:44;;;;;;;0.73;0.50;;;14.70;99.90;;;;;;6160908;23;20578;-81
2022/12/31 08:45:20;;;;;;;1.10;0.60;;;14.50;99.90;;;;;;6160654;23;20661;-80
2022/12/31 08:47:57;;;;;;;0.63;0.60;;;14.50;99.90;;;;;;6162205;23;20173;-80
2022/12/31 08:50:28;;;;;;;1.93;0.90;;;14.40;99.90;;;;;;6158992;23;20177;-80
2022/12/31 08:52:57;;;;;;;1.10;0.80;;;14.30;99.90;;;;;;6158018;23;20236;-81
2022/12/31 08:55:25;;;;;;;0.70;0.70;;;14.20;99.90;;;;;;6160695;23;20192;-80
2022/12/31 08:58:10;;;;;;;1.80;1.50;;;14.00;99.90;;;;;;6164719;23;20201;-82
2022/12/31 09:00:40;;;;;;;2.63;1.90;;;13.80;99.90;;;;;;6171250;23;20192;-82
2022/12/31 09:03:32;;;;;;;2.13;1.50;;;14.10;99.90;;;;;;6172888;23;20177;-82
2022/12/31 09:06:07;;;;;;;0.70;0.70;;;14.20;99.90;;;;;;6162998;23;20241;-81
2022/12/31 09:08:43;;;;;;;0.60;0.60;;;14.30;99.90;;;;;;6163940;23;20260;-78
2022/12/31 09:11:19;;;;;;;0.80;0.80;;;14.40;99.90;;;;;;6169267;23;20181;-79
2022/12/31 09:14:20;;;;;;;1.23;0.90;;;14.70;99.90;;;;;;6164027;23;20190;-79
2022/12/31 09:16:55;;;;;;;1.13;0.83;;;14.80;99.90;;;;;;6170193;23;20185;-80
2022/12/31 09:19:24;;;;;;;1.00;0.80;;;15.10;99.90;;;;;;6180491;23;20258;-79
2022/12/31 09:21:53;;;;;;;0.50;0.50;;;15.20;99.90;;;;;;6194565;23;20177;-80
2022/12/31 09:24:23;;;;;;;0.50;0.50;;;15.20;99.90;;;;;;6196394;23;20351;-80
2022/12/31 09:27:02;;;;;;;1.30;0.63;;;15.20;99.90;;;;;;6202850;23;20219;-78
2022/12/31 09:29:55;;;;;;;0.80;0.80;;;15.20;99.90;;;;;;6174594;23;20211;-78
2022/12/31 09:32:30;;;;;;;1.47;0.77;;;15.20;99.90;;;;;;6173366;23;20201;-79
2022/12/31 09:35:10;;;;;;;0.60;0.60;;;15.20;99.90;;;;;;6174044;23;20645;-79
2022/12/31 09:37:45;;;;;;;0.70;0.70;;;15.10;99.90;;;;;;6171156;23;20156;-79
2022/12/31 09:40:50;;;;;;;0.53;0.53;;;15.10;99.90;;;;;;6168171;23;20602;-81
2022/12/31 09:43:52;;;;;;;0.60;0.60;;;15.00;99.90;;;;;;6156889;23;20165;-79
2022/12/31 09:47:02;;;;;;;1.37;0.80;;;14.90;99.90;;;;;;6168504;23;20178;-79
2022/12/31 09:49:56;;;;;;;0.63;0.63;;;14.70;99.90;;;;;;6170187;23;20217;-80
2022/12/31 09:52:35;;;;;;;1.17;0.70;;;14.70;99.90;;;;;;6165964;23;20572;-80
2022/12/31 09:55:33;;;;;;;0.93;0.70;;;14.80;99.90;;;;;;6169442;23;20185;-81
2022/12/31 10:00:42;;;;;;;1.13;0.70;;;14.80;99.90;;;;;;6226105;23;20523;-80
2022/12/31 10:03:30;;;;;;;0.90;0.70;;;14.90;99.90;;;;;;6230144;23;20160;-82
2022/12/31 10:06:23;;;;;;;1.70;0.80;;;15.10;99.90;;;;;;6179786;23;20233;-80
2022/12/31 10:09:22;;;;;;;1.17;0.60;;;15.30;99.90;;;;;;6165623;23;20241;-79
2022/12/31 10:12:13;;;;;;;1.23;0.70;;;15.50;99.90;;;;;;6152317;23;20205;-79
2022/12/31 10:14:55;;;;;;;0.93;0.70;;;15.60;99.90;;;;;;6170120;23;20273;-79
2022/12/31 10:17:38;;;;;;;0.90;0.70;;;15.80;99.90;;;;;;6167814;23;20181;-81
2022/12/31 10:20:27;;;;;;;0.57;0.57;;;16.10;99.90;;;;;;6169257;23;20177;-79
2022/12/31 10:23:19;;;;;;;0.57;0.57;;;16.20;99.90;;;;;;6163617;23;20166;-79
2022/12/31 10:26:07;;;;;;;2.07;0.77;;;16.20;99.90;;;;;;6166734;23;20232;-79
2022/12/31 10:28:44;;;;;;;0.83;0.60;;;15.90;99.90;;;;;;6168520;23;20182;-79
2022/12/31 10:31:31;;;;;;;1.77;0.77;;;15.80;99.90;;;;;;6163379;23;20188;-79
2022/12/31 10:34:13;;;;;;;1.37;0.63;;;15.60;99.90;;;;;;6163013;23;20728;-79
2022/12/31 10:36:54;;;;;;;0.80;0.67;;;15.60;99.90;;;;;;6166243;23;20595;-78
2022/12/31 10:39:43;;;;;;;1.53;0.83;;;15.50;99.90;;;;;;6163529;23;20233;-79
2022/12/31 10:42:45;;;;;;;0.83;0.60;;;15.50;99.90;;;;;;6171264;23;20256;-78
2022/12/31 10:45:47;;;;;;;2.00;0.90;;;15.40;99.90;;;;;;6168911;23;20185;-81
2022/12/31 10:48:38;;;;;;;1.17;0.83;;;15.40;99.90;;;;;;6162734;23;20181;-79
2022/12/31 10:51:47;;;;;;;2.67;0.80;;;15.40;99.90;;;;;;6161881;23;20204;-78
2022/12/31 10:54:47;;;;;;;1.40;1.30;;;15.30;99.90;;;;;;6160076;23;20564;-78
2022/12/31 10:58:09;;;;;;;1.53;0.90;;;15.20;99.90;;;;;;6162603;23;20248;-79
2022/12/31 11:00:48;;;;;;;2.47;1.30;;;15.20;99.90;;;;;;6028423;23;20266;-79
2022/12/31 11:03:49;;;;;;;2.20;1.27;;;15.10;99.90;;;;;;6071543;23;20215;-80
2022/12/31 11:06:51;;;;;;;1.50;1.20;;;15.10;99.90;;;;;;6092907;23;20189;-79
2022/12/31 11:09:43;;;;;;;3.03;1.43;;;15.10;99.90;;;;;;6173758;23;20211;-80
2022/12/31 11:12:32;;;;;;;1.80;1.40;;;15.10;99.90;;;;;;6179028;23;20205;-80
2022/12/31 11:15:22;;;;;;;3.63;1.47;;;15.00;99.90;;;;;;6183092;23;20216;-80
2022/12/31 11:18:02;;;;;;;2.60;1.43;;;15.00;99.90;;;;;;6180786;23;20259;-80
2022/12/31 11:20:49;;;;;;;3.57;1.40;;;15.10;99.90;;;;;;6181928;23;20173;-80
2022/12/31 11:23:32;;;;;;;3.20;1.40;;;15.20;99.90;;;;;;6181491;23;20170;-81
2022/12/31 11:26:11;;;;;;;2.73;1.50;;;15.20;99.90;;;;;;6181592;23;20193;-80
2022/12/31 11:28:57;;;;;;;2.60;1.33;;;15.30;99.90;;;;;;6182510;23;20181;-80
2022/12/31 11:31:58;;;;;;;4.33;1.40;;;15.30;99.90;;;;;;6181651;23;20158;-80
2022/12/31 11:35:08;;;;;;;4.00;1.30;;;15.40;99.90;;;;;;6177646;23;20211;-79
2022/12/31 11:37:44;;;;;;;3.03;1.50;;;15.40;99.90;;;;;;6182631;23;20181;-79
2022/12/31 11:40:52;;;;;;;3.23;1.00;;;15.50;99.90;;;;;;6182870;23;20176;-80
2022/12/31 11:43:27;;;;;;;5.10;1.60;;;15.50;99.90;;;;;;6174573;23;20189;-80
2022/12/31 11:46:36;;;;;;;2.90;1.40;;;15.50;99.90;;;;;;6182965;23;20213;-80
2022/12/31 11:49:28;;;;;;;4.10;1.60;;;15.60;99.90;;;;;;6157175;23;20189;-80
2022/12/31 11:52:19;;;;;;;1.43;1.20;;;15.70;99.90;;;;;;6181822;23;20173;-80
2022/12/31 11:54:59;;;;;;;1.90;1.60;;;15.80;99.90;;;;;;6182334;23;20201;-80
2022/12/31 11:57:33;;;;;;;2.47;1.60;;;15.90;99.90;;;;;;6177160;23;20184;-80
2022/12/31 12:00:12;;;;;;;2.90;1.87;;;16.10;99.90;;;;;;6176316;23;20220;-80
2022/12/31 12:02:45;;;;;;;3.10;1.90;;;16.20;99.90;;;;;;6180217;23;20181;-79
2022/12/31 12:05:16;;;;;;;2.47;1.80;;;16.20;99.90;;;;;;6180696;23;20256;-80
2022/12/31 12:07:46;;;;;;;2.17;1.80;;;16.30;99.90;;;;;;6181264;23;20165;-80
2022/12/31 12:10:23;;;;;;;3.43;1.80;;;16.50;99.90;;;;;;6180386;23;20182;-80
2022/12/31 12:13:00;;;;;;;5.43;2.23;;;16.60;99.90;;;;;;6181137;23;20196;-81
2022/12/31 12:15:32;;;;;;;8.77;2.50;;;16.60;99.90;;;;;;6180732;23;20209;-81
2022/12/31 12:18:10;;;;;;;4.20;2.60;;;16.80;99.90;;;;;;6179452;23;20225;-80
2022/12/31 12:21:06;;;;;;;4.93;2.40;;;16.70;99.90;;;;;;6181000;23;20180;-80
2022/12/31 12:24:03;;;;;;;4.63;2.67;;;16.80;99.90;;;;;;6180411;23;20226;-80
2022/12/31 12:26:57;;;;;;;6.83;3.47;;;17.00;99.90;;;;;;6179329;23;20197;-79
2022/12/31 12:29:49;;;;;;;3.60;2.20;;;17.10;99.90;;;;;;6180474;23;20177;-80
2022/12/31 12:32:20;;;;;;;5.10;2.97;;;17.30;99.90;;;;;;6179528;23;20188;-80
2022/12/31 12:34:49;;;;;;;3.33;2.40;;;17.30;99.90;;;;;;6175051;23;20721;-81
2022/12/31 12:37:32;;;;;;;3.93;2.20;;;17.10;99.90;;;;;;6178562;23;20178;-80
2022/12/31 12:40:04;;;;;;;4.17;2.10;;;16.90;99.90;;;;;;6179194;23;20166;-80
2022/12/31 12:42:32;;;;;;;5.13;2.10;;;17.00;99.90;;;;;;6178515;23;20213;-79
2022/12/31 12:45:02;;;;;;;2.63;1.90;;;17.00;99.90;;;;;;6179079;23;20189;-80
2022/12/31 12:47:33;;;;;;;2.23;1.70;;;16.90;99.90;;;;;;6177978;23;20178;-81
2022/12/31 12:50:06;;;;;;;3.20;1.70;;;16.90;99.90;;;;;;6179172;23;20168;-82
2022/12/31 12:52:55;;;;;;;2.10;1.60;;;16.90;99.90;;;;;;6177574;23;20177;-81
2022/12/31 12:55:34;;;;;;;3.67;1.50;;;16.80;99.90;;;;;;6178358;23;20194;-80
2022/12/31 12:58:23;;;;;;;2.20;1.63;;;16.90;99.90;;;;;;6178986;23;20158;-80
2022/12/31 13:01:00;;;;;;;1.97;1.70;;;16.80;99.90;;;;;;6179367;23;20178;-81
2022/12/31 13:03:58;;;;;;;1.57;1.20;;;16.70;99.90;;;;;;6176706;23;20181;-81
2022/12/31 13:07:06;;;;;;;1.70;1.40;;;16.60;99.90;;;;;;6177299;23;20181;-80
2022/12/31 13:09:47;;;;;;;2.10;1.60;;;16.60;99.90;;;;;;6172450;23;20180;-80
2022/12/31 13:12:24;;;;;;;3.50;1.60;;;16.70;99.90;;;;;;6171555;23;20190;-80
2022/12/31 13:15:21;;;;;;;2.10;1.60;;;16.70;99.90;;;;;;6171276;23;20201;-80
2022/12/31 13:18:03;;;;;;;1.93;1.50;;;16.80;99.90;;;;;;6170737;23;20178;-81
2022/12/31 13:20:39;;;;;;;3.90;2.07;;;16.80;99.90;;;;;;6168061;23;20203;-81
2022/12/31 13:23:16;;;;;;;2.80;2.00;;;17.00;99.90;;;;;;6172434;23;20166;-82
2022/12/31 13:26:00;;;;;;;3.37;1.83;;;16.90;99.90;;;;;;6171264;23;20193;-79
2022/12/31 13:28:31;;;;;;;4.40;1.93;;;16.80;99.90;;;;;;6159861;23;20173;-81
2022/12/31 13:31:03;;;;;;;2.77;1.60;;;16.80;99.90;;;;;;6167341;23;20248;-80
2022/12/31 13:33:39;;;;;;;2.23;1.50;;;16.80;99.90;;;;;;6167155;23;20173;-80
2022/12/31 13:36:14;;;;;;;1.90;1.33;;;16.80;99.90;;;;;;6165822;23;20208;-79
2022/12/31 13:38:45;;;;;;;2.03;1.30;;;16.70;99.90;;;;;;6159837;23;20177;-80
2022/12/31 13:41:18;;;;;;;2.00;1.20;;;16.70;99.90;;;;;;6160898;23;20233;-80
2022/12/31 13:43:57;;;;;;;3.03;1.20;;;16.60;99.90;;;;;;6157522;23;20185;-80
2022/12/31 13:46:35;;;;;;;1.47;1.30;;;16.50;99.90;;;;;;6158539;23;20180;-79
2022/12/31 13:49:05;;;;;;;3.83;1.80;;;16.60;99.90;;;;;;6158460;23;20268;-79